Flight Track Log - Related Links

Times and Time Zones

All times are in EDT time to prevent confusion due to time zone crossing. See the ASQ5958 flight status page for this flight to view local times or setup timezone preferences in your user account.

Time Position Orientation Groundspeed Altitude Reporting Facility
EDT Latitude Longitude Course Direction KTS MPH feet Rate Location/Type
Tue 07:40:50 PM 40.8067 -111.9794 70° East 180 207 4,900  Level Salt Lake Center
Tue 07:41:54 PM 40.8675 -111.9836 357° North 197 227 6,800 1,714 Climbing Salt Lake Center
Tue 07:42:56 PM 40.9344 -111.9939 353° North 238 274 8,500 1,887 Climbing Salt Lake Center
Tue 07:43:58 PM 41.0058 -111.9981 357° North 251 289 10,700 1,887 Climbing Salt Lake Center
Tue 07:44:00 PM 40.9222 -111.4669 66° East  Level FlightAware Approximate
Tue 07:45:00 PM 40.9585 -111.3410 75° East  Level FlightAware Approximate
Tue 07:45:00 PM 41.0225 -111.9114 76° East 269 310 12,400  Level Salt Lake Center
Tue 07:46:00 PM 40.9901 -111.2126 70° East  Level FlightAware Approximate
Tue 07:46:01 PM 41.0139 -111.8108 96° East 295 339 13,200  Level Salt Lake Center
Tue 07:47:03 PM 41.0008 -111.6658 97° East 333 383 14,700 1,548 Climbing Salt Lake Center
Tue 07:48:05 PM 40.9894 -111.5397 97° East 345 397 16,400 1,742 Climbing Salt Lake Center
Tue 07:49:07 PM 40.9778 -111.4158 97° East 340 391 18,300 1,887 Climbing Salt Lake Center
Tue 07:50:09 PM 40.9667 -111.2950 97° East 332 382 20,300 1,512 Climbing Salt Lake Center
Tue 07:51:10 PM 40.9539 -111.1697 98° East 342 394 21,400 1,073 Climbing Salt Lake Center
Tue 07:52:12 PM 40.9414 -111.0356 97° East 364 419 22,500 1,065 Climbing Salt Lake Center
Tue 07:53:14 PM 40.9275 -110.8950 97° East 383 441 23,600 1,113 Climbing Salt Lake Center
Tue 07:54:16 PM 40.9106 -110.7233 97° East 393 452 24,800 1,122 Climbing Salt Lake Center
Tue 07:55:17 PM 40.8969 -110.5797 97° East 399 459 25,900 1,171 Climbing Salt Lake Center
Tue 07:56:19 PM 40.8819 -110.4383 98° East 406 467 27,200 1,452 Climbing Salt Lake Center
Tue 07:57:21 PM 40.8658 -110.2772 97° East 400 460 28,900 1,548 Climbing Salt Lake Center
Tue 07:58:23 PM 40.8514 -110.1408 98° East 394 453 30,400 1,500 Climbing Salt Lake Center
Tue 07:59:25 PM 40.8356 -109.9919 98° East 388 447 32,000 1,645 Climbing Salt Lake Center
Tue 08:00:27 PM 40.8194 -109.8372 98° East 382 440 33,800 1,452 Climbing Salt Lake Center
Tue 08:01:29 PM 40.8058 -109.7094 98° East 370 426 35,000 581 Climbing Salt Lake Center
Tue 08:02:31 PM 40.7906 -109.5772 99° East 379 436 35,000  Level Salt Lake Center
Tue 08:03:33 PM 40.7728 -109.4075 98° East 413 475 35,000  Level Salt Lake Center
Tue 08:04:34 PM 40.7556 -109.2528 98° East 439 505 35,000  Level Salt Lake Center
Tue 08:05:36 PM 40.7339 -109.0653 99° East 454 522 35,000  Level Salt Lake Center
Tue 08:06:17 PM 40.7231 -108.9606 98° East 454 522 35,000  Level Denver Center
Tue 08:07:19 PM 40.7053 -108.8042 98° East 450 518 35,000  Level Denver Center
Tue 08:08:21 PM 40.6839 -108.6244 99° East 445 512 35,000  Level Denver Center
Tue 08:09:23 PM 40.6672 -108.4686 98° East 446 513 35,000  Level Denver Center
Tue 08:10:25 PM 40.6606 -108.2875 93° East 443 510 35,000  Level Denver Center
Tue 08:11:27 PM 40.6536 -108.1314 93° East 444 511 35,000  Level Denver Center
Tue 08:12:29 PM 40.6461 -107.9508 93° East 441 507 35,000  Level Denver Center
Tue 08:13:31 PM 40.6383 -107.7947 94° East 444 511 35,000  Level Denver Center
Tue 08:14:33 PM 40.6300 -107.6119 93° East 448 516 35,000  Level Denver Center
Tue 08:15:35 PM 40.6231 -107.4575 93° East 444 511 35,000  Level Denver Center
Tue 08:16:37 PM 40.6150 -107.3014 94° East 445 512 35,000  Level Denver Center
Tue 08:17:39 PM 40.6075 -107.1361 93° East 446 513 35,000 -435 Level Denver Center
Tue 08:18:41 PM 40.5983 -106.9717 94° East 447 514 34,100 -871 Descending Denver Center
Tue 08:19:43 PM 40.5894 -106.8083 94° East 447 514 33,200 -968 Descending Denver Center
Tue 08:20:45 PM 40.5789 -106.6114 94° East 449 517 32,100 -1,016 Descending Denver Center
Tue 08:21:47 PM 40.5692 -106.4403 94° East 452 520 31,100 -532 Descending Denver Center
Tue 08:22:49 PM 40.5592 -106.2839 95° East 449 517 31,000 -634 Descending Denver Center
Tue 08:23:50 PM 40.5525 -106.1458 94° East 409 471 29,800 -1,805 Descending Denver Center
Tue 08:24:52 PM 40.5417 -105.9800 95° East 382 440 27,300 -2,226 Descending Denver Center
Tue 08:25:54 PM 40.5336 -105.8442 94° East 374 430 25,200 -1,935 Descending Denver Center
Tue 08:26:56 PM 40.5250 -105.7103 95° East 368 423 23,300 -1,839 Descending Denver Center
Tue 08:27:58 PM 40.5161 -105.5839 95° East 353 406 21,400 -1,676 Descending Denver Center
Tue 08:29:12 PM 40.5081 -105.4578 95° East 348 400 19,500 -1,721 Descending Denver Center
Tue 08:30:14 PM 40.4978 -105.3089 95° East 341 392 17,500 -2,081 Descending Denver Center
Tue 08:31:16 PM 40.4356 -105.1939 125° Southeast 354 407 15,200 -1,645 Descending Denver Center
Tue 08:32:18 PM 40.3533 -105.1422 154° Southeast 335 386 14,100 -1,065 Descending Denver Center
Tue 08:33:20 PM 40.2553 -105.1411 180° South 331 381 13,000 -532 Descending Denver Center
Tue 08:34:22 PM 40.1678 -105.1378 178° South 317 365 13,000  Level Denver Center
Tue 08:35:23 PM 40.0967 -105.1369 179° South 305 351 13,000 -341 Level Denver Center
Tue 08:36:25 PM 40.0075 -105.1161 170° South 272 313 12,300 -968 Descending Denver Center
Tue 08:37:27 PM 39.9425 -105.0656 149° Southeast 273 314 11,000 -1,258 Descending Denver Center
Tue 08:38:29 PM 39.8800 -105.0072 144° Southeast 258 297 9,700 -1,113 Descending Denver Center
Tue 08:39:31 PM 39.8428 -104.9403 126° Southeast 227 261 8,700 -1,210 Descending Denver Center
Tue 08:40:33 PM 39.8419 -104.8594 91° East 207 238 7,200 -1,171 Descending Denver Center
Tue 08:41:34 PM 39.8411 -104.7961 91° East 167 192 6,300 -829 Descending Denver Center
Tue 08:42:36 PM 39.8408 -104.7383 90° East 147 169 5,500 -435 Descending Denver Center
Tue 08:43:38 PM 39.8417 -104.6850 89° East 147 169 5,400 -97 Descending Denver Center

Login

Don't have an account? Register now (free) for customized features, flight alerts, and more!